Time;durP1;ratioP1;P1;durP2;ratioP2;P2;SDS_P1;SDS_P2;PMS_P1;PMS_P2;Temp;Humidity;BMP_temperature;BMP_pressure;BME280_temperature;BME280_humidity;BME280_pressure;Samples;Min_cycle;Max_cycle;Signal;HPM_P1;HPM_P2
2021/05/24 00:01:26;;;;;;;1.80;0.60;;;;;;;;;;5020831;28;20398;-80
2021/05/24 00:03:53;;;;;;;1.23;0.90;;;;;;;;;;5026592;28;20401;-79
2021/05/24 00:06:19;;;;;;;0.90;0.70;;;;;;;;;;5025279;28;20434;-79
2021/05/24 00:08:46;;;;;;;1.30;0.73;;;;;;;;;;5024410;28;20755;-80
2021/05/24 00:11:13;;;;;;;1.05;0.70;;;;;;;;;;5026478;28;20428;-81
2021/05/24 00:13:45;;;;;;;1.08;0.70;;;;;;;;;;5026933;28;20969;-79
2021/05/24 00:16:12;;;;;;;1.60;0.70;;;;;;;;;;5024037;28;20416;-80
2021/05/24 00:18:38;;;;;;;1.00;0.63;;;;;;;;;;5026298;28;20409;-80
2021/05/24 00:21:05;;;;;;;0.85;0.60;;;;;;;;;;5025124;28;20409;-80
2021/05/24 00:23:32;;;;;;;1.55;0.60;;;;;;;;;;5026306;28;20430;-79
2021/05/24 00:25:58;;;;;;;0.70;0.60;;;;;;;;;;5018111;28;20447;-79
2021/05/24 00:28:25;;;;;;;0.77;0.70;;;;;;;;;;5021835;28;20405;-79
2021/05/24 00:30:52;;;;;;;1.90;0.60;;;;;;;;;;5025449;28;20405;-79
2021/05/24 00:33:19;;;;;;;1.42;0.70;;;;;;;;;;5026518;28;20470;-80
2021/05/24 00:35:46;;;;;;;0.60;0.60;;;;;;;;;;5027327;28;20409;-79
2021/05/24 00:38:13;;;;;;;0.82;0.70;;;;;;;;;;5026500;28;20409;-79
2021/05/24 00:40:39;;;;;;;0.60;0.60;;;;;;;;;;5024623;28;20397;-79
2021/05/24 00:43:07;;;;;;;1.95;0.63;;;;;;;;;;5025323;28;20402;-80
2021/05/24 00:45:36;;;;;;;0.80;0.60;;;;;;;;;;5026776;28;20423;-79
2021/05/24 00:48:03;;;;;;;0.95;0.68;;;;;;;;;;5024905;28;20411;-80
2021/05/24 00:50:29;;;;;;;1.08;0.80;;;;;;;;;;5027857;28;20406;-80
2021/05/24 00:52:56;;;;;;;1.25;0.80;;;;;;;;;;5014702;28;20401;-79
2021/05/24 00:55:22;;;;;;;1.75;0.70;;;;;;;;;;5013195;28;20398;-80
2021/05/24 00:57:50;;;;;;;0.70;0.70;;;;;;;;;;5014043;28;20787;-79
2021/05/24 01:00:29;;;;;;;0.90;0.80;;;;;;;;;;5014034;28;20424;-79
2021/05/24 01:02:58;;;;;;;1.20;0.60;;;;;;;;;;5019181;28;20460;-80
2021/05/24 01:05:25;;;;;;;1.42;0.80;;;;;;;;;;5018691;28;20429;-79
2021/05/24 01:07:51;;;;;;;0.93;0.70;;;;;;;;;;5017338;28;20406;-79
2021/05/24 01:10:19;;;;;;;1.30;0.77;;;;;;;;;;5013042;28;20635;-80
2021/05/24 01:12:45;;;;;;;0.88;0.73;;;;;;;;;;5013006;28;20418;-79
2021/05/24 01:15:13;;;;;;;0.65;0.65;;;;;;;;;;5012857;28;20411;-79
2021/05/24 01:17:39;;;;;;;0.90;0.60;;;;;;;;;;5013443;28;20456;-79
2021/05/24 01:20:10;;;;;;;1.90;0.73;;;;;;;;;;5012826;28;21268;-79
2021/05/24 01:22:38;;;;;;;1.90;0.80;;;;;;;;;;5013507;28;20407;-79
2021/05/24 01:25:06;;;;;;;2.95;0.85;;;;;;;;;;5012960;28;20907;-80
2021/05/24 01:27:32;;;;;;;1.02;0.77;;;;;;;;;;5013408;28;20407;-80
2021/05/24 01:29:59;;;;;;;0.98;0.90;;;;;;;;;;5013383;28;20401;-80
2021/05/24 01:32:26;;;;;;;1.30;1.20;;;;;;;;;;5017558;28;20412;-80
2021/05/24 01:34:54;;;;;;;2.05;0.95;;;;;;;;;;5013942;28;20405;-80
2021/05/24 01:37:21;;;;;;;1.25;0.90;;;;;;;;;;5012862;28;20490;-79
2021/05/24 01:39:48;;;;;;;1.15;0.93;;;;;;;;;;5013421;28;20875;-79
2021/05/24 01:42:15;;;;;;;2.00;0.90;;;;;;;;;;5013158;28;20405;-80
2021/05/24 01:44:42;;;;;;;2.53;1.15;;;;;;;;;;5013667;28;20410;-80
2021/05/24 01:47:09;;;;;;;2.30;0.90;;;;;;;;;;5013029;28;20502;-79
2021/05/24 01:49:37;;;;;;;1.73;1.10;;;;;;;;;;5012717;28;20459;-80
2021/05/24 01:52:04;;;;;;;1.58;0.90;;;;;;;;;;5012421;28;20399;-80
2021/05/24 01:54:30;;;;;;;1.88;1.05;;;;;;;;;;5012857;28;20408;-79
2021/05/24 01:56:58;;;;;;;1.10;1.00;;;;;;;;;;5019734;28;20752;-80
2021/05/24 01:59:24;;;;;;;2.67;1.20;;;;;;;;;;5020033;28;20411;-80
2021/05/24 02:01:50;;;;;;;2.05;1.20;;;;;;;;;;5022076;28;20743;-80
2021/05/24 02:04:17;;;;;;;1.60;1.20;;;;;;;;;;5016092;28;20410;-80
2021/05/24 02:06:44;;;;;;;1.35;1.08;;;;;;;;;;5015464;28;21278;-80
2021/05/24 02:09:10;;;;;;;1.17;1.00;;;;;;;;;;5018515;28;20412;-80
2021/05/24 02:11:37;;;;;;;1.98;1.20;;;;;;;;;;5015595;28;20407;-80
2021/05/24 02:14:04;;;;;;;2.60;1.50;;;;;;;;;;5018104;28;20409;-80
2021/05/24 02:16:38;;;;;;;2.33;1.40;;;;;;;;;;5016239;28;20398;-78
2021/05/24 02:19:05;;;;;;;2.13;1.40;;;;;;;;;;5018575;28;20402;-80
2021/05/24 02:21:32;;;;;;;2.70;1.70;;;;;;;;;;5015984;28;20407;-81
2021/05/24 02:23:58;;;;;;;2.33;1.50;;;;;;;;;;5017287;28;20409;-79
2021/05/24 02:26:25;;;;;;;3.72;1.50;;;;;;;;;;5017067;28;20433;-80
2021/05/24 02:28:51;;;;;;;1.97;1.40;;;;;;;;;;5016762;28;20444;-80
2021/05/24 02:31:19;;;;;;;3.00;1.35;;;;;;;;;;5018006;28;20401;-79
2021/05/24 02:33:46;;;;;;;2.50;1.35;;;;;;;;;;5015967;28;20938;-80
2021/05/24 02:36:12;;;;;;;1.73;1.30;;;;;;;;;;5018158;28;20409;-80
2021/05/24 02:38:39;;;;;;;3.93;1.60;;;;;;;;;;5015292;28;20516;-80
2021/05/24 02:41:05;;;;;;;2.30;1.42;;;;;;;;;;5018397;28;20401;-79
2021/05/24 02:43:32;;;;;;;1.80;1.50;;;;;;;;;;5015918;28;20432;-80
2021/05/24 02:45:58;;;;;;;2.10;1.40;;;;;;;;;;5017012;28;20434;-81
2021/05/24 02:48:26;;;;;;;2.47;1.60;;;;;;;;;;5016738;28;20401;-80
2021/05/24 02:50:52;;;;;;;2.88;1.60;;;;;;;;;;5016434;28;20403;-80
2021/05/24 02:53:19;;;;;;;2.92;1.52;;;;;;;;;;5019167;28;20804;-79
2021/05/24 02:55:45;;;;;;;2.47;1.67;;;;;;;;;;5019200;28;20419;-80
2021/05/24 02:58:12;;;;;;;3.00;1.98;;;;;;;;;;5016046;28;20414;-79
2021/05/24 03:00:38;;;;;;;2.25;1.85;;;;;;;;;;5018930;28;20491;-80
2021/05/24 03:03:05;;;;;;;2.53;1.92;;;;;;;;;;5015295;28;20792;-80
2021/05/24 03:05:32;;;;;;;1.88;1.50;;;;;;;;;;5017630;28;20512;-79
2021/05/24 03:08:01;;;;;;;2.83;1.80;;;;;;;;;;5015643;28;20490;-80
2021/05/24 03:10:27;;;;;;;3.10;1.80;;;;;;;;;;5016090;28;20403;-80
2021/05/24 03:12:54;;;;;;;1.90;1.70;;;;;;;;;;5016310;28;20403;-81
2021/05/24 03:15:21;;;;;;;2.03;1.80;;;;;;;;;;5017226;28;20398;-81
2021/05/24 03:17:48;;;;;;;3.42;1.80;;;;;;;;;;5018030;28;20441;-80
2021/05/24 03:20:17;;;;;;;2.60;1.60;;;;;;;;;;5021104;28;20415;-79
2021/05/24 03:22:45;;;;;;;2.25;1.98;;;;;;;;;;5021353;28;20412;-80
2021/05/24 03:25:15;;;;;;;2.05;1.80;;;;;;;;;;5017559;28;20877;-80
2021/05/24 03:27:42;;;;;;;4.47;2.33;;;;;;;;;;5020482;28;20818;-80
2021/05/24 03:30:09;;;;;;;3.13;2.22;;;;;;;;;;5021089;28;20579;-79
2021/05/24 03:32:37;;;;;;;3.58;2.20;;;;;;;;;;5017560;28;20403;-80
2021/05/24 03:35:03;;;;;;;3.38;2.30;;;;;;;;;;5016917;28;20405;-80
2021/05/24 03:37:30;;;;;;;4.68;2.35;;;;;;;;;;5018329;28;20415;-80
2021/05/24 03:39:57;;;;;;;3.22;2.20;;;;;;;;;;5018797;28;20897;-80
2021/05/24 03:42:24;;;;;;;2.58;2.08;;;;;;;;;;5019962;28;20401;-79
2021/05/24 03:44:50;;;;;;;4.07;2.22;;;;;;;;;;5018792;28;20921;-80
2021/05/24 03:47:17;;;;;;;5.53;2.20;;;;;;;;;;5020255;28;20421;-79
2021/05/24 03:49:45;;;;;;;2.67;2.20;;;;;;;;;;5017878;28;20399;-79
2021/05/24 03:52:12;;;;;;;3.40;2.20;;;;;;;;;;5020931;28;20492;-79
2021/05/24 03:54:38;;;;;;;2.40;2.20;;;;;;;;;;5017729;28;20403;-80
2021/05/24 03:57:07;;;;;;;3.95;2.15;;;;;;;;;;5020345;28;20907;-80
2021/05/24 03:59:34;;;;;;;2.67;2.20;;;;;;;;;;5018217;28;20879;-80
2021/05/24 04:02:00;;;;;;;4.10;2.28;;;;;;;;;;5018387;28;20416;-81
2021/05/24 04:04:27;;;;;;;2.28;2.08;;;;;;;;;;5023378;28;20440;-80
2021/05/24 04:06:55;;;;;;;3.40;2.10;;;;;;;;;;5021675;28;20466;-80
2021/05/24 04:09:22;;;;;;;3.75;2.22;;;;;;;;;;5020693;28;20878;-80
2021/05/24 04:11:48;;;;;;;4.03;2.38;;;;;;;;;;5019964;28;20784;-80
2021/05/24 04:14:16;;;;;;;2.95;2.10;;;;;;;;;;5022427;28;20405;-80
2021/05/24 04:16:42;;;;;;;2.58;1.90;;;;;;;;;;5022459;28;20410;-79
2021/05/24 04:19:10;;;;;;;2.33;2.13;;;;;;;;;;5021445;28;20489;-80
2021/05/24 04:21:37;;;;;;;4.00;2.22;;;;;;;;;;5021897;28;20388;-79
2021/05/24 04:24:05;;;;;;;2.50;2.20;;;;;;;;;;5021179;28;20403;-80
2021/05/24 04:26:31;;;;;;;4.20;2.20;;;;;;;;;;5021505;28;20436;-80
2021/05/24 04:28:58;;;;;;;6.27;2.47;;;;;;;;;;5020994;28;20493;-81
2021/05/24 04:31:25;;;;;;;3.75;2.53;;;;;;;;;;5021195;28;20459;-80
2021/05/24 04:33:51;;;;;;;4.25;2.60;;;;;;;;;;5021550;28;20401;-80
2021/05/24 04:36:18;;;;;;;6.28;2.70;;;;;;;;;;5014250;28;20403;-81
2021/05/24 04:38:44;;;;;;;5.10;2.88;;;;;;;;;;5014251;28;20405;-79
2021/05/24 04:41:11;;;;;;;3.45;2.50;;;;;;;;;;5014174;28;20400;-79
2021/05/24 04:43:39;;;;;;;5.28;2.58;;;;;;;;;;5014803;28;20405;-80
2021/05/24 04:46:06;;;;;;;3.20;2.00;;;;;;;;;;5015638;28;20508;-79
2021/05/24 04:48:34;;;;;;;3.03;1.85;;;;;;;;;;5019545;28;20811;-80
2021/05/24 04:51:01;;;;;;;4.78;1.90;;;;;;;;;;5019287;28;20452;-80
2021/05/24 04:53:27;;;;;;;2.90;1.77;;;;;;;;;;5020635;28;20397;-79
2021/05/24 04:55:54;;;;;;;4.63;1.77;;;;;;;;;;5022866;28;20793;-79
2021/05/24 04:58:20;;;;;;;2.70;1.70;;;;;;;;;;4981976;28;20408;-78
2021/05/24 05:00:47;;;;;;;3.10;1.77;;;;;;;;;;4981857;28;20556;-78
2021/05/24 05:03:14;;;;;;;4.22;1.65;;;;;;;;;;4976051;28;20416;-79
2021/05/24 05:05:41;;;;;;;4.05;1.80;;;;;;;;;;4975453;28;20512;-79
2021/05/24 05:08:08;;;;;;;4.88;1.60;;;;;;;;;;4976974;28;20544;-79
2021/05/24 05:10:34;;;;;;;3.03;1.58;;;;;;;;;;4975878;28;20405;-80
2021/05/24 05:13:01;;;;;;;2.90;1.23;;;;;;;;;;4975710;28;20517;-80
2021/05/24 05:15:27;;;;;;;3.58;1.30;;;;;;;;;;4981383;28;20412;-80
2021/05/24 05:17:54;;;;;;;2.65;1.60;;;;;;;;;;4977579;28;20448;-79
2021/05/24 05:20:20;;;;;;;3.25;1.35;;;;;;;;;;4977088;28;20421;-79
2021/05/24 05:22:48;;;;;;;2.33;1.20;;;;;;;;;;4982871;28;20423;-78
2021/05/24 05:25:15;;;;;;;1.97;1.47;;;;;;;;;;4980334;28;21488;-80
2021/05/24 05:27:42;;;;;;;2.65;1.27;;;;;;;;;;4985304;28;20404;-79
2021/05/24 05:30:09;;;;;;;3.60;1.38;;;;;;;;;;4974742;28;20412;-79
2021/05/24 05:32:36;;;;;;;1.40;1.30;;;;;;;;;;4982087;28;20816;-79
2021/05/24 05:35:02;;;;;;;3.37;1.40;;;;;;;;;;4983317;28;20402;-79
2021/05/24 05:37:29;;;;;;;2.90;1.30;;;;;;;;;;4983515;28;20954;-79
2021/05/24 05:39:57;;;;;;;2.78;1.60;;;;;;;;;;4971876;28;20410;-81
2021/05/24 05:42:24;;;;;;;2.40;1.30;;;;;;;;;;4975342;28;20414;-80
2021/05/24 05:44:50;;;;;;;3.13;1.60;;;;;;;;;;4977283;28;20483;-80
2021/05/24 05:47:17;;;;;;;2.60;1.20;;;;;;;;;;4979838;28;20436;-79
2021/05/24 05:49:47;;;;;;;2.35;1.40;;;;;;;;;;4980162;28;20427;-80
2021/05/24 05:52:16;;;;;;;3.10;1.77;;;;;;;;;;4979967;28;20485;-82
2021/05/24 05:54:43;;;;;;;2.45;1.65;;;;;;;;;;4980504;28;20775;-80
2021/05/24 05:57:10;;;;;;;2.30;1.70;;;;;;;;;;4998929;28;20427;-79
2021/05/24 05:59:36;;;;;;;2.42;1.70;;;;;;;;;;5018169;28;20493;-80
2021/05/24 06:02:03;;;;;;;3.97;1.60;;;;;;;;;;5017434;28;20405;-81
2021/05/24 06:04:29;;;;;;;2.97;1.60;;;;;;;;;;5033026;22;20385;-84
2021/05/24 06:06:56;;;;;;;3.50;1.58;;;;;;;;;;4981405;28;21084;-84
2021/05/24 06:09:23;;;;;;;2.45;1.50;;;;;;;;;;4984534;28;20877;-85
2021/05/24 06:11:52;;;;;;;3.90;1.60;;;;;;;;;;4986528;28;20427;-85
2021/05/24 06:14:20;;;;;;;2.60;1.50;;;;;;;;;;4986820;28;20408;-84
2021/05/24 06:16:47;;;;;;;2.20;1.50;;;;;;;;;;4986878;28;20408;-86
2021/05/24 06:19:14;;;;;;;3.63;1.80;;;;;;;;;;4986168;28;20413;-84
2021/05/24 06:21:41;;;;;;;2.10;1.52;;;;;;;;;;4987077;28;20413;-85
2021/05/24 06:24:08;;;;;;;4.32;2.00;;;;;;;;;;4983675;28;20400;-85
2021/05/24 06:26:35;;;;;;;5.90;1.92;;;;;;;;;;4986497;28;20788;-85
2021/05/24 06:29:02;;;;;;;2.78;1.83;;;;;;;;;;4986675;28;20467;-85
2021/05/24 06:31:29;;;;;;;3.15;1.88;;;;;;;;;;4986977;28;20401;-85
2021/05/24 06:33:55;;;;;;;4.28;1.90;;;;;;;;;;4985977;28;20765;-85
2021/05/24 06:36:22;;;;;;;4.10;1.88;;;;;;;;;;4984609;28;20413;-85
2021/05/24 06:38:48;;;;;;;4.15;2.15;;;;;;;;;;4986748;28;20404;-85
2021/05/24 06:41:15;;;;;;;4.57;2.10;;;;;;;;;;4984163;28;20413;-86
2021/05/24 06:43:41;;;;;;;3.90;2.08;;;;;;;;;;4986665;28;20488;-85
2021/05/24 06:46:08;;;;;;;4.55;2.53;;;;;;;;;;4982848;28;20435;-85
2021/05/24 06:48:35;;;;;;;5.28;2.60;;;;;;;;;;4986813;28;20769;-84
2021/05/24 06:51:02;;;;;;;5.20;3.45;;;;;;;;;;4985845;28;20897;-85
2021/05/24 06:53:28;;;;;;;3.90;2.70;;;;;;;;;;4989836;28;20487;-86
2021/05/24 06:55:54;;;;;;;5.75;3.13;;;;;;;;;;4989738;28;20401;-85
2021/05/24 06:58:21;;;;;;;6.53;3.10;;;;;;;;;;4987255;28;20490;-85
2021/05/24 07:00:48;;;;;;;5.53;3.20;;;;;;;;;;4990484;28;20440;-85
2021/05/24 07:03:14;;;;;;;5.63;2.78;;;;;;;;;;4989929;28;20487;-84
2021/05/24 07:05:42;;;;;;;5.32;2.80;;;;;;;;;;4989198;28;20409;-85
2021/05/24 07:08:08;;;;;;;3.67;2.80;;;;;;;;;;4987920;28;20811;-87
2021/05/24 07:10:35;;;;;;;5.63;2.87;;;;;;;;;;4990118;28;20535;-86
2021/05/24 07:13:01;;;;;;;3.50;2.72;;;;;;;;;;4989318;28;20415;-86
2021/05/24 07:15:28;;;;;;;6.73;2.90;;;;;;;;;;4987589;28;20493;-85
2021/05/24 07:17:55;;;;;;;4.33;3.03;;;;;;;;;;4989868;28;20409;-86
2021/05/24 07:20:22;;;;;;;5.40;2.92;;;;;;;;;;4987427;28;20420;-84
2021/05/24 07:22:50;;;;;;;5.20;2.83;;;;;;;;;;4989810;28;20427;-85
2021/05/24 07:25:16;;;;;;;4.40;2.53;;;;;;;;;;4989713;28;20416;-87
2021/05/24 07:27:43;;;;;;;5.95;2.63;;;;;;;;;;4989115;28;20424;-85
2021/05/24 07:30:10;;;;;;;4.78;2.80;;;;;;;;;;4987703;28;20405;-86
2021/05/24 07:32:37;;;;;;;4.72;2.75;;;;;;;;;;4989652;28;20437;-85
2021/05/24 07:35:04;;;;;;;4.15;3.08;;;;;;;;;;4988054;28;20883;-84
2021/05/24 07:37:31;;;;;;;3.47;2.58;;;;;;;;;;4989387;28;20455;-86
2021/05/24 07:39:58;;;;;;;4.72;2.72;;;;;;;;;;4989157;28;20425;-86
2021/05/24 07:42:25;;;;;;;4.47;2.70;;;;;;;;;;4989121;28;20467;-84
2021/05/24 07:44:51;;;;;;;4.13;2.63;;;;;;;;;;4987038;28;20405;-86
2021/05/24 07:47:18;;;;;;;3.92;2.55;;;;;;;;;;4989063;28;20515;-85
2021/05/24 07:49:45;;;;;;;5.50;2.60;;;;;;;;;;4988562;28;20412;-85
2021/05/24 07:52:12;;;;;;;6.82;3.00;;;;;;;;;;4988773;28;20904;-86
2021/05/24 07:54:38;;;;;;;5.07;2.70;;;;;;;;;;4989531;28;20484;-86
2021/05/24 07:57:06;;;;;;;5.35;3.30;;;;;;;;;;4988490;28;20405;-85
2021/05/24 07:59:33;;;;;;;4.10;3.10;;;;;;;;;;4988816;28;20420;-86
2021/05/24 08:02:01;;;;;;;4.50;3.20;;;;;;;;;;4987595;28;20409;-85
2021/05/24 08:04:28;;;;;;;6.95;3.22;;;;;;;;;;4988071;28;20400;-86
2021/05/24 08:06:54;;;;;;;5.30;3.10;;;;;;;;;;4988046;28;20790;-86
2021/05/24 08:09:21;;;;;;;5.22;3.35;;;;;;;;;;4986705;28;20489;-86
2021/05/24 08:11:48;;;;;;;5.57;2.97;;;;;;;;;;4988724;28;20770;-86
2021/05/24 08:14:15;;;;;;;5.60;3.60;;;;;;;;;;4986044;28;20412;-85
2021/05/24 08:16:42;;;;;;;8.13;3.60;;;;;;;;;;4989149;28;20420;-84
2021/05/24 08:19:08;;;;;;;5.43;3.88;;;;;;;;;;4987998;28;20412;-85
2021/05/24 08:21:35;;;;;;;4.97;3.92;;;;;;;;;;4988693;28;20401;-86
2021/05/24 08:24:01;;;;;;;8.35;3.92;;;;;;;;;;4988156;28;20413;-86
2021/05/24 08:26:28;;;;;;;7.30;3.78;;;;;;;;;;4988630;28;21108;-86
2021/05/24 08:28:54;;;;;;;4.53;3.58;;;;;;;;;;4988215;28;20428;-85
2021/05/24 08:31:21;;;;;;;5.40;3.30;;;;;;;;;;4988369;28;20882;-85
2021/05/24 08:33:48;;;;;;;4.18;3.17;;;;;;;;;;4988241;28;20415;-86
2021/05/24 08:36:14;;;;;;;6.15;4.05;;;;;;;;;;4988063;28;20408;-86
2021/05/24 08:38:41;;;;;;;6.55;4.35;;;;;;;;;;4988149;28;20404;-86
2021/05/24 08:41:09;;;;;;;9.32;4.60;;;;;;;;;;4987635;28;20401;-87
2021/05/24 08:43:36;;;;;;;6.80;4.13;;;;;;;;;;4987785;28;20432;-86
2021/05/24 08:46:03;;;;;;;6.45;3.92;;;;;;;;;;4987236;28;20431;-86
2021/05/24 08:48:31;;;;;;;7.53;4.33;;;;;;;;;;4989651;28;20417;-86
2021/05/24 08:50:58;;;;;;;8.27;4.90;;;;;;;;;;4987883;28;20413;-85
2021/05/24 08:53:26;;;;;;;7.47;3.85;;;;;;;;;;4996799;28;20405;-85
2021/05/24 08:55:54;;;;;;;6.95;4.38;;;;;;;;;;4999232;28;20389;-86
2021/05/24 08:58:21;;;;;;;7.22;4.40;;;;;;;;;;4995825;28;20413;-86
2021/05/24 09:00:47;;;;;;;7.30;4.30;;;;;;;;;;4988085;28;20886;-85
2021/05/24 09:03:19;;;;;;;6.82;4.47;;;;;;;;;;4987322;28;20405;-85
2021/05/24 09:05:47;;;;;;;9.00;4.53;;;;;;;;;;4986791;28;20553;-85
2021/05/24 09:08:14;;;;;;;8.13;5.10;;;;;;;;;;4987540;28;20843;-86
2021/05/24 09:10:42;;;;;;;7.68;4.80;;;;;;;;;;4985893;28;20893;-86
2021/05/24 09:13:10;;;;;;;10.02;5.00;;;;;;;;;;4983907;28;21249;-84
2021/05/24 09:15:39;;;;;;;7.93;4.90;;;;;;;;;;4984389;28;20436;-85
2021/05/24 09:18:07;;;;;;;6.35;4.78;;;;;;;;;;4987360;28;20467;-85
2021/05/24 09:20:36;;;;;;;6.50;4.53;;;;;;;;;;4987211;28;20471;-84
2021/05/24 09:23:10;;;;;;;7.22;4.18;;;;;;;;;;4987084;28;20409;-86
2021/05/24 09:25:48;;;;;;;8.52;5.05;;;;;;;;;;4987809;28;20416;-86
2021/05/24 09:28:29;;;;;;;7.90;4.60;;;;;;;;;;4985505;28;20519;-85
2021/05/24 09:30:56;;;;;;;7.00;4.18;;;;;;;;;;4985468;28;20408;-86
2021/05/24 09:33:23;;;;;;;6.10;3.75;;;;;;;;;;4986885;28;20405;-85
2021/05/24 09:35:51;;;;;;;6.07;4.28;;;;;;;;;;4987161;28;20892;-86
2021/05/24 09:38:19;;;;;;;7.10;4.22;;;;;;;;;;4987387;28;20425;-86
2021/05/24 09:40:56;;;;;;;6.50;4.18;;;;;;;;;;4987302;28;20408;-84
2021/05/24 09:43:30;;;;;;;5.68;4.05;;;;;;;;;;4987099;28;20420;-84
2021/05/24 09:46:07;;;;;;;6.28;4.18;;;;;;;;;;4985022;28;20765;-85
2021/05/24 09:48:34;;;;;;;6.07;4.28;;;;;;;;;;4986312;28;20503;-86
2021/05/24 09:51:03;;;;;;;6.65;4.45;;;;;;;;;;4986346;28;20968;-85
2021/05/24 09:53:31;;;;;;;5.10;3.73;;;;;;;;;;4987064;28;20489;-86
2021/05/24 09:56:04;;;;;;;5.28;3.60;;;;;;;;;;4987141;28;20424;-85
2021/05/24 09:58:30;;;;;;;6.18;4.15;;;;;;;;;;4985257;28;20421;-84
2021/05/24 10:01:13;;;;;;;6.30;4.00;;;;;;;;;;4984461;28;20401;-85
2021/05/24 10:03:41;;;;;;;4.97;3.78;;;;;;;;;;4987064;28;20457;-84
2021/05/24 10:06:08;;;;;;;7.53;3.85;;;;;;;;;;4985952;28;20451;-85
2021/05/24 10:08:36;;;;;;;6.55;3.63;;;;;;;;;;4987175;28;20759;-83
2021/05/24 10:11:03;;;;;;;5.47;3.70;;;;;;;;;;4986661;28;20413;-84
2021/05/24 10:13:30;;;;;;;6.47;3.58;;;;;;;;;;4986467;28;20879;-86
2021/05/24 10:16:01;;;;;;;5.25;4.00;;;;;;;;;;4983148;28;20450;-86
2021/05/24 10:18:29;;;;;;;6.13;3.83;;;;;;;;;;4984944;28;20894;-84
2021/05/24 10:20:57;;;;;;;5.20;3.75;;;;;;;;;;4984336;28;20470;-84
2021/05/24 10:23:24;;;;;;;5.03;3.53;;;;;;;;;;4986932;28;20729;-84
2021/05/24 10:25:53;;;;;;;6.93;3.70;;;;;;;;;;4987459;28;20459;-84
2021/05/24 10:28:22;;;;;;;6.47;4.83;;;;;;;;;;4990282;28;20502;-84
2021/05/24 10:30:48;;;;;;;6.45;4.75;;;;;;;;;;4990678;28;20451;-85
2021/05/24 10:33:15;;;;;;;5.18;4.20;;;;;;;;;;4990054;28;20408;-86
2021/05/24 10:35:43;;;;;;;5.00;4.25;;;;;;;;;;4990595;28;20753;-86
2021/05/24 10:38:30;;;;;;;6.53;4.35;;;;;;;;;;4990626;28;20709;-86
2021/05/24 10:41:06;;;;;;;6.00;4.40;;;;;;;;;;4988278;28;20488;-86
2021/05/24 10:43:45;;;;;;;5.95;4.50;;;;;;;;;;4989419;28;20401;-86
2021/05/24 10:46:35;;;;;;;5.95;4.57;;;;;;;;;;4988255;28;20417;-86
2021/05/24 10:49:04;;;;;;;7.37;5.00;;;;;;;;;;4989501;28;20444;-86
2021/05/24 10:52:03;;;;;;;4.85;4.30;;;;;;;;;;4989932;28;20401;-85
2021/05/24 10:54:36;;;;;;;5.20;3.72;;;;;;;;;;4988654;28;20881;-86
2021/05/24 10:57:10;;;;;;;5.40;3.60;;;;;;;;;;4988439;28;20409;-86
2021/05/24 10:59:59;;;;;;;4.88;3.70;;;;;;;;;;4990046;28;20919;-89
2021/05/24 11:02:37;;;;;;;5.15;3.28;;;;;;;;;;4987421;28;20728;-88
2021/05/24 11:05:20;;;;;;;5.18;3.38;;;;;;;;;;4987773;28;20420;-89
2021/05/24 11:07:48;;;;;;;6.40;3.60;;;;;;;;;;4988749;28;20420;-88
2021/05/24 11:10:36;;;;;;;5.72;4.00;;;;;;;;;;4990118;28;20455;-91
2021/05/24 11:13:26;;;;;;;5.72;4.15;;;;;;;;;;4991223;28;20417;-95
2021/05/24 11:15:54;;;;;;;5.82;4.05;;;;;;;;;;4991795;28;20463;-95
2021/05/24 11:18:26;;;;;;;5.97;4.10;;;;;;;;;;4991602;28;20405;-91
2021/05/24 11:20:59;;;;;;;6.22;4.28;;;;;;;;;;4990090;28;20428;-92
2021/05/24 11:26:32;;;;;;;5.70;4.00;;;;;;;;;;4988476;28;20428;-93
2021/05/24 11:29:13;;;;;;;5.80;4.00;;;;;;;;;;4989068;28;20415;-91
2021/05/24 11:31:46;;;;;;;6.78;4.03;;;;;;;;;;4990426;28;20428;-93
2021/05/24 11:34:25;;;;;;;5.97;4.30;;;;;;;;;;4973504;28;20422;-93
2021/05/24 11:36:53;;;;;;;6.18;4.40;;;;;;;;;;4974084;28;20505;-95
2021/05/24 11:39:29;;;;;;;5.97;4.45;;;;;;;;;;4973060;28;20422;-93
2021/05/24 11:41:58;;;;;;;5.70;4.35;;;;;;;;;;4990971;28;20424;-93
2021/05/24 11:44:28;;;;;;;6.63;4.43;;;;;;;;;;4993559;28;20423;-93
2021/05/24 11:46:56;;;;;;;5.63;5.00;;;;;;;;;;4992338;28;20431;-93
2021/05/24 11:49:32;;;;;;;7.03;5.40;;;;;;;;;;4990380;28;20424;-92
2021/05/24 11:51:59;;;;;;;6.57;5.20;;;;;;;;;;4988701;28;21284;-92
2021/05/24 11:54:26;;;;;;;5.85;4.60;;;;;;;;;;4983762;28;21088;-93
2021/05/24 11:56:55;;;;;;;6.72;5.40;;;;;;;;;;4990465;28;20405;-95
2021/05/24 11:59:23;;;;;;;6.13;5.07;;;;;;;;;;4990096;28;20421;-90
2021/05/24 12:01:52;;;;;;;6.13;5.03;;;;;;;;;;4987176;28;20424;-92
2021/05/24 12:04:21;;;;;;;5.78;4.78;;;;;;;;;;4989954;28;20421;-92
2021/05/24 12:06:49;;;;;;;5.05;4.50;;;;;;;;;;4987796;28;20414;-90
2021/05/24 12:09:33;;;;;;;5.95;4.90;;;;;;;;;;4991594;28;20448;-93
2021/05/24 12:12:01;;;;;;;6.17;4.30;;;;;;;;;;4989806;28;20473;-93
2021/05/24 12:14:28;;;;;;;5.53;4.47;;;;;;;;;;4992446;28;20445;-92
2021/05/24 12:16:55;;;;;;;6.38;4.28;;;;;;;;;;4992069;28;20405;-92
2021/05/24 12:19:24;;;;;;;5.78;4.10;;;;;;;;;;4989778;28;20423;-92
2021/05/24 12:21:51;;;;;;;3.97;3.42;;;;;;;;;;4993434;28;20421;-91
2021/05/24 12:24:19;;;;;;;3.85;3.35;;;;;;;;;;4994499;28;20508;-93
2021/05/24 12:26:51;;;;;;;4.65;3.80;;;;;;;;;;4992899;28;20479;-91
2021/05/24 12:29:27;;;;;;;5.27;3.60;;;;;;;;;;4987121;28;20423;-92
2021/05/24 12:31:57;;;;;;;5.10;3.42;;;;;;;;;;4995265;28;20411;-92
2021/05/24 12:34:33;;;;;;;5.90;3.70;;;;;;;;;;4993281;28;20440;-91
2021/05/24 12:37:00;;;;;;;5.03;3.38;;;;;;;;;;4988237;28;20495;-93
2021/05/24 12:39:30;;;;;;;4.78;3.17;;;;;;;;;;4994119;28;20422;-93
2021/05/24 12:41:59;;;;;;;3.95;3.30;;;;;;;;;;5011038;28;20421;-93
2021/05/24 12:44:26;;;;;;;6.88;3.53;;;;;;;;;;4995354;28;20461;-95
2021/05/24 12:46:56;;;;;;;5.05;3.42;;;;;;;;;;5006617;28;20433;-94
2021/05/24 12:49:34;;;;;;;5.43;3.70;;;;;;;;;;5002256;28;21769;-93
2021/05/24 12:52:02;;;;;;;5.13;3.85;;;;;;;;;;5003549;28;20412;-93
2021/05/24 12:54:39;;;;;;;6.63;3.80;;;;;;;;;;4996379;28;20953;-93
2021/05/24 12:57:06;;;;;;;5.97;4.00;;;;;;;;;;4989536;28;20416;-92
2021/05/24 12:59:44;;;;;;;6.13;3.78;;;;;;;;;;4996059;28;20459;-92
2021/05/24 13:02:11;;;;;;;4.05;3.60;;;;;;;;;;4989217;28;20420;-93
2021/05/24 13:04:39;;;;;;;5.35;3.60;;;;;;;;;;5000728;28;20411;-93
2021/05/24 13:07:13;;;;;;;3.92;3.20;;;;;;;;;;4997637;28;20416;-92
2021/05/24 13:09:42;;;;;;;3.90;3.47;;;;;;;;;;4987707;28;20409;-91
2021/05/24 13:12:19;;;;;;;4.00;3.60;;;;;;;;;;5000198;28;20821;-90
2021/05/24 13:14:53;;;;;;;3.43;2.77;;;;;;;;;;4989797;28;20780;-92
2021/05/24 13:17:36;;;;;;;3.97;3.30;;;;;;;;;;4988550;28;20414;-93
2021/05/24 13:26:08;;;;;;;4.22;3.70;;;;;;;;;;4994925;28;20388;-95
2021/05/24 13:28:46;;;;;;;3.70;3.40;;;;;;;;;;4990422;28;20424;-92
2021/05/24 13:31:13;;;;;;;4.22;2.95;;;;;;;;;;4993140;28;20452;-93
2021/05/24 13:33:42;;;;;;;3.17;2.80;;;;;;;;;;4992941;28;20421;-94
2021/05/24 13:36:22;;;;;;;3.22;2.80;;;;;;;;;;4986595;28;20777;-94
2021/05/24 13:39:00;;;;;;;3.83;2.70;;;;;;;;;;4990401;28;20411;-93
2021/05/24 13:41:27;;;;;;;3.40;2.67;;;;;;;;;;4998168;28;20467;-92
2021/05/24 13:43:54;;;;;;;3.33;3.03;;;;;;;;;;4992109;28;20469;-95
2021/05/24 13:46:21;;;;;;;3.17;2.88;;;;;;;;;;4990436;28;20915;-93
2021/05/24 13:48:48;;;;;;;4.20;3.10;;;;;;;;;;4986291;28;20609;-94
2021/05/24 13:51:15;;;;;;;3.25;2.95;;;;;;;;;;4984715;28;20413;-92
2021/05/24 15:03:28;;;;;;;4.15;3.40;;;;;;;;;;5045212;28;20383;-91
2021/05/24 15:05:54;;;;;;;4.18;3.83;;;;;;;;;;5024259;28;20440;-91
2021/05/24 15:08:21;;;;;;;4.80;4.40;;;;;;;;;;5045294;28;20786;-91
2021/05/24 15:10:48;;;;;;;5.07;4.50;;;;;;;;;;5046086;28;20764;-91
2021/05/24 15:13:15;;;;;;;4.63;4.22;;;;;;;;;;5049403;28;20427;-90
2021/05/24 15:15:42;;;;;;;5.32;4.60;;;;;;;;;;5044631;28;20440;-91
2021/05/24 15:18:08;;;;;;;4.30;3.90;;;;;;;;;;5046099;28;20421;-91
2021/05/24 15:20:36;;;;;;;4.68;3.85;;;;;;;;;;5046366;28;20415;-91
2021/05/24 15:23:03;;;;;;;4.55;3.72;;;;;;;;;;5048712;28;20768;-90
2021/05/24 15:25:30;;;;;;;5.37;3.80;;;;;;;;;;5045780;28;20496;-91
2021/05/24 15:27:58;;;;;;;4.65;3.50;;;;;;;;;;5047708;28;20408;-90
2021/05/24 15:30:25;;;;;;;5.53;3.78;;;;;;;;;;5042886;28;20419;-89
2021/05/24 15:32:52;;;;;;;3.60;3.20;;;;;;;;;;5047298;28;20504;-90
2021/05/24 15:35:19;;;;;;;4.88;3.08;;;;;;;;;;5045122;28;20530;-89
2021/05/24 15:37:47;;;;;;;4.95;3.00;;;;;;;;;;5037038;28;20420;-89
2021/05/24 15:40:15;;;;;;;4.53;3.30;;;;;;;;;;5044620;28;20488;-90
2021/05/24 15:42:42;;;;;;;4.53;3.78;;;;;;;;;;5046764;28;20409;-90
2021/05/24 15:45:11;;;;;;;4.22;3.10;;;;;;;;;;5025563;28;20811;-90
2021/05/24 15:47:38;;;;;;;3.85;2.95;;;;;;;;;;5042778;28;20427;-90
2021/05/24 15:50:05;;;;;;;3.95;2.85;;;;;;;;;;5044442;28;20518;-90
2021/05/24 15:52:32;;;;;;;4.00;3.00;;;;;;;;;;5045352;28;20393;-88
2021/05/24 15:55:00;;;;;;;3.40;2.50;;;;;;;;;;5047489;28;20400;-89
2021/05/24 15:57:26;;;;;;;3.13;2.42;;;;;;;;;;5041251;28;20432;-88
2021/05/24 15:59:53;;;;;;;3.43;2.73;;;;;;;;;;5045982;28;20475;-88
2021/05/24 16:02:19;;;;;;;2.90;2.70;;;;;;;;;;5043941;28;20904;-88
2021/05/24 16:04:46;;;;;;;3.60;3.13;;;;;;;;;;5032542;28;20401;-89
2021/05/24 16:07:12;;;;;;;3.53;3.10;;;;;;;;;;5033187;28;20454;-88
2021/05/24 16:09:39;;;;;;;3.70;3.22;;;;;;;;;;5028160;28;20402;-90